createdAt,value
2023-02-24T00:24:55.968Z,92334.00
2023-02-24T00:25:56.025Z,92334.00
2023-02-24T00:26:56.076Z,92332.00
2023-02-24T00:27:56.128Z,92334.00
2023-02-24T00:28:56.248Z,92334.00
2023-02-24T00:29:56.230Z,92332.00
2023-02-24T00:30:56.373Z,92332.00
2023-02-24T00:31:56.715Z,92330.00
2023-02-24T00:32:56.456Z,92330.00
2023-02-24T00:33:56.453Z,92330.00
2023-02-24T00:34:56.511Z,92330.00
2023-02-24T00:35:56.566Z,92328.00
2023-02-24T00:36:56.617Z,92330.00
2023-02-24T00:37:57.254Z,92328.00
2023-02-24T00:38:56.743Z,92328.00
2023-02-24T00:39:56.786Z,92328.00
2023-02-24T00:40:56.921Z,92326.00
2023-02-24T00:41:56.892Z,92324.00
2023-02-24T00:42:56.950Z,92324.00
2023-02-24T00:43:56.998Z,92318.00
2023-02-24T00:44:57.090Z,92320.00
2023-02-24T00:45:57.221Z,92318.00
2023-02-24T00:46:57.220Z,92316.00
2023-02-24T00:47:57.261Z,92316.00
2023-02-24T00:48:57.303Z,92314.00
2023-02-24T00:49:57.411Z,92312.00
2023-02-24T00:50:57.527Z,92310.00
2023-02-24T00:51:57.584Z,92310.00
2023-02-24T00:52:57.654Z,92312.00
2023-02-24T00:53:57.744Z,92306.00
2023-02-24T00:54:57.826Z,92308.00
2023-02-24T00:55:57.832Z,92306.00
2023-02-24T00:56:57.931Z,92301.00
2023-02-24T00:57:58.028Z,92303.00
2023-02-24T00:58:58.053Z,92297.00
2023-02-24T00:59:58.117Z,92293.00
2023-02-24T01:00:58.253Z,92293.00
2023-02-24T01:20:59.569Z,92273.00
2023-02-24T01:21:59.670Z,92271.00
2023-02-24T01:22:59.766Z,92269.00
2023-02-24T01:23:59.889Z,92271.00
2023-02-24T01:24:59.972Z,92269.00
2023-02-24T01:26:00.115Z,92271.00
2023-02-24T01:27:00.160Z,92271.00
2023-02-24T01:28:00.301Z,92269.00
2023-02-24T01:29:00.288Z,92267.00
2023-02-24T01:30:00.357Z,92265.00
2023-02-24T01:31:00.519Z,92269.00
2023-02-24T01:32:00.679Z,92267.00
2023-02-24T01:33:00.833Z,92267.00
2023-02-24T01:34:00.651Z,92265.00
2023-02-24T01:35:00.725Z,92263.00
2023-02-24T01:36:00.777Z,92265.00
2023-02-24T01:37:00.855Z,92263.00
2023-02-24T01:38:00.916Z,92261.00
2023-02-24T01:39:00.995Z,92263.00
2023-02-24T01:40:01.062Z,92261.00
2023-02-24T02:17:03.567Z,92238.00
2023-02-24T02:18:03.606Z,92236.00
2023-02-24T02:19:03.715Z,92236.00
2023-02-24T02:20:03.780Z,92236.00
2023-02-24T02:21:03.853Z,92236.00
2023-02-24T02:22:03.929Z,92238.00
2023-02-24T02:23:03.980Z,92238.00
2023-02-24T02:24:04.031Z,92240.00
2023-02-24T02:25:04.093Z,92242.00
2023-02-24T02:26:04.152Z,92244.00
2023-02-24T02:27:04.207Z,92244.00
2023-02-24T02:28:04.271Z,92246.00
2023-02-24T02:29:04.310Z,92246.00
2023-02-24T02:30:04.397Z,92244.00
2023-02-24T02:31:04.483Z,92244.00
2023-02-24T02:32:04.563Z,92246.00
2023-02-24T02:33:04.523Z,92248.00
2023-02-24T02:34:04.595Z,92246.00
2023-02-24T02:35:04.721Z,92246.00
2023-02-24T02:36:04.718Z,92248.00
2023-02-24T02:37:04.761Z,92246.00
2023-02-24T02:38:04.812Z,92246.00
2023-02-24T02:39:04.886Z,92248.00
2023-02-24T02:40:04.944Z,92242.00
2023-02-24T02:41:05.066Z,92242.00
2023-02-24T02:42:05.130Z,92242.00
2023-02-24T02:43:05.200Z,92240.00
2023-02-24T02:44:05.289Z,92242.00
2023-02-24T02:45:05.367Z,92240.00
2023-02-24T02:46:05.479Z,92240.00
2023-02-24T02:47:05.494Z,92240.00
2023-02-24T02:48:05.588Z,92246.00
2023-02-24T02:49:05.633Z,92240.00
2023-02-24T02:50:05.699Z,92240.00
2023-02-24T02:51:05.772Z,92242.00
2023-02-24T02:52:05.868Z,92240.00
2023-02-24T02:53:05.895Z,92240.00
2023-02-24T02:54:05.971Z,92240.00
2023-02-24T02:55:06.006Z,92238.00
2023-02-24T02:56:06.090Z,92238.00
2023-02-24T02:57:06.161Z,92240.00
2023-02-24T02:58:06.233Z,92240.00
2023-02-24T02:59:06.291Z,92236.00
2023-02-24T03:00:06.359Z,92238.00
2023-02-24T03:01:06.858Z,92236.00
2023-02-24T03:02:06.455Z,92236.00
2023-02-24T03:03:06.584Z,92236.00
2023-02-24T03:04:06.631Z,92234.00
2023-02-24T03:05:06.734Z,92232.00
2023-02-24T03:06:06.776Z,92232.00
2023-02-24T03:07:06.925Z,92228.00
2023-02-24T03:08:06.937Z,92230.00
2023-02-24T03:09:07.032Z,92230.00
2023-02-24T03:10:07.110Z,92228.00
2023-02-24T03:11:07.192Z,92230.00
2023-02-24T03:12:07.286Z,92228.00
2023-02-24T03:13:07.331Z,92230.00
2023-02-24T03:14:07.381Z,92226.00
2023-02-24T03:15:07.511Z,92228.00
2023-02-24T03:16:07.505Z,92228.00
2023-02-24T03:17:07.606Z,92228.00
2023-02-24T03:18:07.653Z,92226.00
2023-02-24T03:19:07.692Z,92224.00
2023-02-24T03:20:07.742Z,92226.00
2023-02-24T03:21:07.834Z,92228.00
2023-02-24T03:22:07.862Z,92226.00
2023-02-24T03:23:07.934Z,92222.00
2023-02-24T03:24:08.012Z,92224.00
2023-02-24T03:25:08.048Z,92222.00
2023-02-24T03:26:08.215Z,92220.00
2023-02-24T03:27:08.173Z,92218.00
2023-02-24T03:28:08.242Z,92220.00
2023-02-24T03:29:08.316Z,92220.00
2023-02-24T03:30:08.374Z,92220.00
2023-02-24T03:31:08.485Z,92218.00
2023-02-24T03:32:08.613Z,92222.00
2023-02-24T03:33:08.559Z,92218.00
2023-02-24T03:34:08.791Z,92220.00
2023-02-24T03:35:08.681Z,92218.00
2023-02-24T03:36:08.741Z,92214.00
2023-02-24T03:37:08.808Z,92216.00
2023-02-24T03:38:08.886Z,92212.00
2023-02-24T03:39:08.943Z,92212.00
2023-02-24T03:40:09.007Z,92214.00
2023-02-24T03:41:09.054Z,92212.00
2023-02-24T03:42:09.115Z,92214.00
2023-02-24T03:43:09.221Z,92212.00
2023-02-24T03:44:09.259Z,92214.00
2023-02-24T03:45:09.311Z,92214.00
2023-02-24T03:46:09.421Z,92216.00
2023-02-24T03:47:09.441Z,92216.00
2023-02-24T03:48:09.541Z,92216.00
2023-02-24T03:49:09.602Z,92214.00
2023-02-24T03:50:09.651Z,92216.00
2023-02-24T05:05:15.962Z,92159.00
2023-02-24T05:25:18.148Z,92128.00
2023-02-24T05:26:18.246Z,92130.00
2023-02-24T05:27:18.338Z,92132.00
2023-02-24T05:28:18.468Z,92132.00
2023-02-24T05:29:18.572Z,92132.00
2023-02-24T05:30:18.661Z,92130.00
2023-02-24T05:31:18.924Z,92128.00
2023-02-24T06:30:26.869Z,92099.00
2023-02-24T06:37:26.006Z,92105.00
2023-02-24T06:39:26.087Z,92103.00
2023-02-24T06:40:26.103Z,92107.00
2023-02-24T06:41:26.143Z,92110.00
2023-02-24T06:42:26.177Z,92110.00
2023-02-24T06:43:26.217Z,92112.00
2023-02-24T06:44:26.263Z,92112.00
2023-02-24T06:45:26.387Z,92110.00
2023-02-24T06:46:26.375Z,92114.00
2023-02-24T06:47:26.374Z,92112.00
2023-02-24T06:48:26.424Z,92112.00
2023-02-24T06:49:26.455Z,92116.00
2023-02-24T06:50:26.496Z,92114.00
2023-02-24T06:51:26.526Z,92114.00
2023-02-24T06:52:27.332Z,92116.00
2023-02-24T06:53:26.601Z,92120.00
2023-02-24T06:54:26.629Z,92114.00
2023-02-24T06:55:26.694Z,92120.00
2023-02-24T06:56:26.696Z,92114.00
2023-02-24T06:57:26.770Z,92110.00
2023-02-24T06:58:26.815Z,92107.00
2023-02-24T09:20:35.994Z,91922.00
2023-02-24T09:21:36.064Z,91921.00
2023-02-24T09:22:36.151Z,91917.00
2023-02-24T09:23:36.252Z,91913.00
2023-02-24T09:24:36.354Z,91913.00
2023-02-24T09:25:36.461Z,91911.00
2023-02-24T09:26:36.551Z,91909.00
2023-02-24T09:27:36.658Z,91913.00
2023-02-24T09:28:36.765Z,91907.00
2023-02-24T09:29:36.801Z,91901.00
2023-02-24T09:30:37.151Z,91901.00
2023-02-24T09:31:38.104Z,91905.00
2023-02-24T09:32:37.307Z,91901.00
2023-02-24T09:33:37.961Z,91903.00
2023-02-24T09:34:37.251Z,91897.00
2023-02-24T09:35:38.880Z,91907.00
2023-02-24T09:36:37.317Z,91899.00
2023-02-24T09:37:38.349Z,91897.00
2023-02-24T09:38:38.574Z,91897.00
2023-02-24T09:39:37.957Z,91901.00
2023-02-24T09:40:37.483Z,91899.00
2023-02-24T09:41:37.483Z,91893.00
2023-02-24T09:42:38.389Z,91891.00
2023-02-24T09:49:37.864Z,91875.00
2023-02-24T09:50:59.888Z,91874.00
2023-02-24T09:53:40.752Z,91868.00
2023-02-24T09:54:38.046Z,91864.00
2023-02-24T09:55:38.062Z,91858.00
2023-02-24T09:56:38.082Z,91858.00
2023-02-24T09:58:43.657Z,91860.00
2023-02-24T09:59:39.156Z,91856.00
2023-02-24T10:00:38.965Z,91854.00
2023-02-24T10:01:38.284Z,91848.00
2023-02-24T10:02:38.246Z,91856.00
2023-02-24T10:03:38.266Z,91854.00
2023-02-24T10:04:38.278Z,91852.00
2023-02-24T10:05:38.381Z,91854.00
2023-02-24T10:06:38.334Z,91850.00
2023-02-24T10:07:39.373Z,91850.00
2023-02-24T10:08:38.396Z,91846.00
2023-02-24T10:09:38.449Z,91846.00
2023-02-24T10:10:39.947Z,91846.00
2023-02-24T10:11:38.426Z,91838.00
2023-02-24T10:12:38.442Z,91838.00
2023-02-24T10:13:38.467Z,91840.00
2023-02-24T10:14:43.822Z,91838.00
2023-02-24T10:15:39.497Z,91836.00
2023-02-24T10:16:38.555Z,91830.00
2023-02-24T10:17:38.542Z,91821.00
2023-02-24T10:18:38.582Z,91821.00
2023-02-24T10:19:38.597Z,91819.00
2023-02-24T10:20:38.643Z,91813.00
2023-02-24T10:21:38.638Z,91811.00
2023-02-24T10:22:38.671Z,91809.00
2023-02-24T10:23:38.702Z,91807.00
2023-02-24T10:24:38.728Z,91807.00
2023-02-24T10:25:38.749Z,91805.00
2023-02-24T10:26:40.284Z,91801.00
2023-02-24T10:27:38.799Z,91799.00
2023-02-24T10:48:41.687Z,91770.00
2023-02-24T10:49:39.478Z,91768.00
2023-02-24T10:50:53.783Z,91766.00
2023-02-24T10:51:40.519Z,91762.00
2023-02-24T10:52:40.503Z,91762.00
2023-02-24T10:53:39.563Z,91758.00
2023-02-24T10:54:40.510Z,91754.00
2023-02-24T10:55:40.497Z,91752.00
2023-02-24T10:56:40.489Z,91746.00
2023-02-24T10:57:50.340Z,91746.00
2023-02-24T10:58:40.748Z,91744.00
2023-02-24T10:59:39.784Z,91743.00
2023-02-24T11:00:39.803Z,91739.00
2023-02-24T11:01:39.972Z,91739.00
2023-02-24T11:02:39.913Z,91737.00
2023-02-24T11:04:39.933Z,91735.00
2023-02-24T11:05:39.966Z,91735.00
2023-02-24T11:06:39.994Z,91733.00
2023-02-24T11:07:40.030Z,91729.00
2023-02-24T11:08:40.141Z,91727.00
2023-02-24T11:09:40.095Z,91727.00
2023-02-24T11:10:40.123Z,91727.00
2023-02-24T11:11:40.155Z,91723.00
2023-02-24T11:12:40.188Z,91721.00
2023-02-24T11:13:40.216Z,91719.00
2023-02-24T11:14:40.248Z,91715.00
2023-02-24T11:15:40.819Z,91713.00
2023-02-24T11:16:40.318Z,91713.00
2023-02-24T11:17:40.365Z,91709.00
2023-02-24T11:18:40.485Z,91707.00
2023-02-24T11:19:40.423Z,91707.00
2023-02-24T11:20:48.933Z,91705.00
2023-02-24T11:21:42.805Z,91703.00
2023-02-24T11:22:40.524Z,91703.00
2023-02-24T11:23:40.556Z,91699.00
2023-02-24T11:24:40.645Z,91697.00
2023-02-24T11:25:40.871Z,91696.00
2023-02-24T11:26:40.825Z,91697.00
2023-02-24T11:27:40.928Z,91694.00
2023-02-24T11:28:40.972Z,91690.00
2023-02-24T11:29:41.060Z,91690.00
2023-02-24T11:30:41.327Z,91686.00
2023-02-24T11:31:41.425Z,91684.00
2023-02-24T11:32:41.318Z,91684.00
2023-02-24T11:33:41.368Z,91678.00
2023-02-24T11:34:41.437Z,91676.00
2023-02-24T11:35:41.512Z,91676.00
2023-02-24T11:36:41.582Z,91672.00
2023-02-24T11:37:43.107Z,91672.00
2023-02-24T11:38:41.744Z,91668.00
2023-02-24T11:39:41.817Z,91666.00
2023-02-24T11:40:41.901Z,91666.00
2023-02-24T11:41:41.978Z,91666.00
2023-02-24T11:42:42.074Z,91666.00
2023-02-24T11:43:42.139Z,91660.00
2023-02-24T12:40:45.971Z,91535.00
2023-02-24T12:41:45.978Z,91533.00
2023-02-24T12:42:46.028Z,91535.00
2023-02-24T12:43:46.071Z,91531.00
2023-02-24T12:44:46.127Z,91531.00
2023-02-24T12:45:46.195Z,91525.00
2023-02-24T12:46:46.218Z,91525.00
2023-02-24T12:47:46.284Z,91527.00
2023-02-24T12:48:46.304Z,91523.00
2023-02-24T12:49:46.343Z,91523.00
2023-02-24T12:50:46.390Z,91519.00
2023-02-24T12:51:46.441Z,91518.00
2023-02-24T12:52:46.485Z,91516.00
2023-02-24T12:53:46.558Z,91516.00
2023-02-24T12:54:46.581Z,91512.00
2023-02-24T12:55:46.633Z,91512.00
2023-02-24T12:56:46.676Z,91510.00
2023-02-24T12:57:46.731Z,91512.00
2023-02-24T12:58:46.817Z,91508.00
2023-02-24T12:59:46.824Z,91508.00
2023-02-24T13:00:46.877Z,91510.00
2023-02-24T13:01:46.938Z,91508.00
2023-02-24T13:02:46.992Z,91508.00
2023-02-24T13:03:47.057Z,91506.00
2023-02-24T13:04:47.089Z,91504.00
2023-02-24T13:05:47.125Z,91502.00
2023-02-24T13:06:47.193Z,91500.00
2023-02-24T13:07:47.237Z,91496.00
2023-02-24T13:08:47.295Z,91496.00
2023-02-24T13:09:47.356Z,91494.00
2023-02-24T13:10:47.404Z,91492.00
2023-02-24T13:11:47.442Z,91492.00
2023-02-24T13:12:47.511Z,91488.00
2023-02-24T13:13:47.555Z,91486.00
2023-02-24T13:14:47.664Z,91486.00
2023-02-24T13:15:47.655Z,91484.00
2023-02-24T13:16:47.766Z,91480.00
2023-02-24T13:17:47.768Z,91478.00
2023-02-24T13:18:47.820Z,91476.00
2023-02-24T13:19:47.878Z,91474.00
2023-02-24T13:20:47.932Z,91474.00
2023-02-24T13:21:48.008Z,91467.00
2023-02-24T13:22:48.057Z,91467.00
2023-02-24T13:23:48.093Z,91467.00
2023-02-24T13:24:48.158Z,91465.00
2023-02-24T13:25:49.037Z,91465.00
2023-02-24T13:26:48.257Z,91459.00
2023-02-24T13:27:48.319Z,91459.00
2023-02-24T13:28:48.384Z,91457.00
2023-02-24T13:29:49.038Z,91459.00
2023-02-24T13:30:48.521Z,91453.00
2023-02-24T13:31:48.659Z,91453.00
2023-02-24T13:32:48.749Z,91451.00
2023-02-24T13:33:48.702Z,91447.00
2023-02-24T13:34:48.749Z,91443.00
2023-02-24T13:35:48.812Z,91443.00
2023-02-24T13:36:48.891Z,91443.00
2023-02-24T13:37:48.952Z,91441.00
2023-02-24T13:38:49.027Z,91441.00
2023-02-24T13:39:49.083Z,91441.00
2023-02-24T13:40:49.136Z,91433.00
2023-02-24T13:41:49.201Z,91433.00
2023-02-24T13:42:49.271Z,91433.00
2023-02-24T13:43:49.326Z,91429.00
2023-02-24T13:44:49.407Z,91429.00
2023-02-24T13:45:49.528Z,91429.00
2023-02-24T13:46:49.539Z,91427.00
2023-02-24T13:47:49.591Z,91427.00
2023-02-24T13:48:49.660Z,91423.00
2023-02-24T13:49:49.731Z,91423.00
2023-02-24T13:50:49.796Z,91419.00
2023-02-24T13:51:49.858Z,91421.00
2023-02-24T13:52:49.936Z,91419.00
2023-02-24T13:53:49.982Z,91416.00
2023-02-24T13:54:50.050Z,91412.00
2023-02-24T13:55:50.118Z,91412.00
2023-02-24T13:56:50.173Z,91410.00
2023-02-24T13:57:50.260Z,91412.00
2023-02-24T13:58:50.341Z,91406.00
2023-02-24T13:59:50.398Z,91406.00
2023-02-24T14:00:50.470Z,91402.00
2023-02-24T14:01:50.595Z,91402.00
2023-02-24T14:02:50.721Z,91396.00
2023-02-24T14:03:50.665Z,91398.00
2023-02-24T14:04:50.748Z,91394.00
2023-02-24T14:05:50.800Z,91392.00
2023-02-24T14:06:50.871Z,91394.00
2023-02-24T14:07:50.940Z,91394.00
2023-02-24T14:08:51.019Z,91392.00
2023-02-24T14:09:51.080Z,91392.00
2023-02-24T14:10:51.148Z,91390.00
2023-02-24T14:11:51.230Z,91388.00
2023-02-24T14:12:51.308Z,91386.00
2023-02-24T14:13:51.372Z,91384.00
2023-02-24T14:14:51.458Z,91382.00
2023-02-24T14:15:51.527Z,91382.00
2023-02-24T14:16:51.591Z,91380.00
2023-02-24T14:17:51.676Z,91378.00
2023-02-24T14:18:51.724Z,91382.00
2023-02-24T14:19:51.878Z,91378.00
2023-02-24T14:20:51.885Z,91378.00
2023-02-24T14:21:51.952Z,91376.00
2023-02-24T14:22:52.046Z,91374.00
2023-02-24T14:23:52.109Z,91374.00
2023-02-24T14:24:52.176Z,91374.00
2023-02-24T14:25:52.245Z,91372.00
2023-02-24T14:26:52.443Z,91374.00
2023-02-24T14:27:52.405Z,91374.00
2023-02-24T14:28:52.477Z,91370.00
2023-02-24T14:29:52.564Z,91367.00
2023-02-24T14:30:52.747Z,91363.00
2023-02-24T14:31:52.804Z,91365.00
2023-02-24T14:32:52.882Z,91363.00
2023-02-24T14:33:52.876Z,91363.00
2023-02-24T14:34:52.948Z,91361.00
2023-02-24T14:35:53.019Z,91363.00
2023-02-24T14:36:53.116Z,91357.00
2023-02-24T14:37:53.177Z,91359.00
2023-02-24T14:38:53.255Z,91359.00
2023-02-24T14:39:53.333Z,91355.00
2023-02-24T14:40:53.408Z,91357.00
2023-02-24T15:10:55.939Z,91306.00
2023-02-24T15:11:56.066Z,91304.00
2023-02-24T15:12:56.110Z,91304.00
2023-02-24T15:13:56.208Z,91304.00
2023-02-24T15:14:56.300Z,91302.00
2023-02-24T15:15:56.422Z,91298.00
2023-02-24T15:16:56.466Z,91300.00
2023-02-24T15:17:56.575Z,91300.00
2023-02-24T15:18:56.668Z,91302.00
2023-02-24T15:19:56.742Z,91298.00
2023-02-24T15:20:56.837Z,91300.00
2023-02-24T15:21:56.947Z,91298.00
2023-02-24T15:22:57.546Z,91298.00
2023-02-24T15:23:57.120Z,91300.00
2023-02-24T15:24:57.205Z,91302.00
2023-02-24T15:25:57.285Z,91300.00
2023-02-24T15:26:57.391Z,91298.00
2023-02-24T15:27:57.466Z,91294.00
2023-02-24T15:41:58.799Z,91291.00
2023-02-24T15:42:58.889Z,91291.00
2023-02-24T15:43:58.981Z,91287.00
2023-02-24T15:44:59.098Z,91287.00
2023-02-24T15:45:59.182Z,91285.00
2023-02-24T15:46:59.306Z,91287.00
2023-02-24T15:47:59.352Z,91287.00
2023-02-24T15:48:59.448Z,91289.00
2023-02-24T15:49:59.534Z,91287.00
2023-02-24T15:50:59.626Z,91285.00
2023-02-24T15:51:59.754Z,91287.00
2023-02-24T15:52:59.842Z,91289.00
2023-02-24T15:54:01.144Z,91287.00
2023-02-24T15:55:00.008Z,91289.00
2023-02-24T15:56:00.106Z,91287.00
2023-02-24T15:57:00.210Z,91289.00
2023-02-24T15:58:00.300Z,91289.00
2023-02-24T15:59:00.404Z,91291.00
2023-02-24T16:00:00.515Z,91293.00
2023-02-24T16:01:00.641Z,91291.00
2023-02-24T16:02:00.687Z,91289.00
2023-02-24T16:03:00.774Z,91287.00
2023-02-24T16:04:00.910Z,91287.00
2023-02-24T16:05:00.954Z,91287.00
2023-02-24T16:06:01.045Z,91287.00
2023-02-24T16:07:01.148Z,91287.00
2023-02-24T16:08:01.256Z,91287.00
2023-02-24T16:09:01.346Z,91285.00
2023-02-24T16:10:01.425Z,91287.00
2023-02-24T16:11:01.524Z,91287.00
2023-02-24T16:12:01.596Z,91287.00
2023-02-24T16:13:01.701Z,91285.00
2023-02-24T16:14:01.776Z,91283.00
2023-02-24T16:15:01.867Z,91287.00
2023-02-24T16:16:02.020Z,91285.00
2023-02-24T16:17:02.043Z,91283.00
2023-02-24T16:18:02.127Z,91285.00
2023-02-24T16:19:02.250Z,91283.00
2023-02-24T16:20:02.344Z,91283.00
2023-02-24T16:21:02.558Z,91281.00
2023-02-24T16:22:02.522Z,91281.00
2023-02-24T16:23:02.637Z,91279.00
2023-02-24T16:24:02.710Z,91281.00
2023-02-24T16:25:02.808Z,91283.00
2023-02-24T16:26:02.910Z,91283.00
2023-02-24T16:27:02.991Z,91281.00
2023-02-24T16:28:03.091Z,91281.00
2023-02-24T16:29:03.192Z,91285.00
2023-02-24T16:30:03.301Z,91287.00
2023-02-24T16:31:03.539Z,91285.00
2023-02-24T16:32:03.836Z,91285.00
2023-02-24T16:33:03.849Z,91285.00
2023-02-24T16:35:03.788Z,91287.00
2023-02-24T16:36:03.877Z,91289.00
2023-02-24T16:37:03.987Z,91289.00
2023-02-24T16:38:04.079Z,91289.00
2023-02-24T16:39:04.179Z,91289.00
2023-02-24T16:40:04.272Z,91285.00
2023-02-24T16:41:04.369Z,91285.00
2023-02-24T16:42:04.483Z,91287.00
2023-02-24T16:43:04.587Z,91293.00
2023-02-24T16:44:04.702Z,91291.00
2023-02-24T16:45:04.811Z,91291.00
2023-02-24T16:46:04.978Z,91291.00
2023-02-24T16:47:05.004Z,91291.00
2023-02-24T16:48:05.098Z,91291.00
2023-02-24T16:49:05.195Z,91287.00
2023-02-24T16:50:05.308Z,91287.00
2023-02-24T16:51:05.417Z,91287.00
2023-02-24T16:52:05.504Z,91285.00
2023-02-24T16:53:05.609Z,91285.00
2023-02-24T16:54:05.727Z,91287.00
2023-02-24T16:55:05.828Z,91285.00
2023-02-24T16:56:05.937Z,91285.00
2023-02-24T16:57:06.031Z,91281.00
2023-02-24T16:58:06.144Z,91279.00
2023-02-24T16:59:06.243Z,91281.00
2023-02-24T17:00:06.341Z,91279.00
2023-02-24T17:01:06.483Z,91281.00
2023-02-24T17:02:06.555Z,91279.00
2023-02-24T17:03:06.650Z,91277.00
2023-02-24T17:04:06.814Z,91279.00
2023-02-24T17:05:06.851Z,91275.00
2023-02-24T17:06:06.965Z,91277.00
2023-02-24T17:07:07.077Z,91275.00
2023-02-24T17:08:07.191Z,91277.00
2023-02-24T17:09:07.310Z,91275.00
2023-02-24T17:10:07.428Z,91277.00
2023-02-24T17:11:07.531Z,91275.00
2023-02-24T17:12:07.634Z,91277.00
2023-02-24T17:13:07.743Z,91275.00
2023-02-24T17:14:07.844Z,91277.00
2023-02-24T17:15:07.951Z,91275.00
2023-02-24T17:16:08.069Z,91277.00
2023-02-24T18:26:16.030Z,91275.00
2023-02-24T18:27:16.164Z,91277.00
2023-02-24T18:28:16.280Z,91279.00
2023-02-24T18:29:16.401Z,91279.00
2023-02-24T18:30:16.526Z,91277.00
2023-02-24T18:31:16.769Z,91281.00
2023-02-24T18:37:17.266Z,91269.00
2023-02-24T18:54:19.240Z,91281.00
2023-02-24T18:55:19.333Z,91285.00
2023-02-24T18:56:19.576Z,91279.00
2023-02-24T18:57:19.575Z,91277.00
2023-02-24T18:59:19.805Z,91275.00
2023-02-24T19:00:19.928Z,91275.00
2023-02-24T19:01:20.092Z,91273.00
2023-02-24T19:02:20.161Z,91273.00
2023-02-24T19:03:20.337Z,91271.00
2023-02-24T19:04:21.359Z,91271.00
2023-02-24T19:05:20.483Z,91271.00
2023-02-24T19:06:21.063Z,91269.00
2023-02-24T19:07:20.720Z,91273.00
2023-02-24T19:08:20.819Z,91277.00
2023-02-24T19:09:20.936Z,91275.00
2023-02-24T19:10:21.036Z,91275.00
2023-02-24T19:11:21.127Z,91281.00
2023-02-24T19:12:21.208Z,91281.00
2023-02-24T19:13:21.307Z,91277.00
2023-02-24T19:14:21.426Z,91277.00
2023-02-24T19:15:21.551Z,91277.00
2023-02-24T19:16:21.974Z,91279.00
2023-02-24T19:17:21.709Z,91277.00
2023-02-24T19:18:21.809Z,91281.00
2023-02-24T19:19:21.905Z,91283.00
2023-02-24T19:20:22.016Z,91287.00
2023-02-24T19:21:22.072Z,91291.00
2023-02-24T19:22:22.165Z,91291.00
2023-02-24T19:23:22.256Z,91291.00
2023-02-24T19:24:22.375Z,91291.00
2023-02-24T19:25:22.473Z,91296.00
2023-02-24T19:26:22.968Z,91294.00
2023-02-24T19:27:22.665Z,91294.00
2023-02-24T19:28:22.750Z,91296.00
2023-02-24T19:29:22.862Z,91298.00
2023-02-24T19:30:22.977Z,91298.00
2023-02-24T19:31:23.261Z,91300.00
2023-02-24T19:32:23.322Z,91302.00
2023-02-24T19:33:23.253Z,91302.00
2023-02-24T19:34:23.386Z,91306.00
2023-02-24T19:35:23.469Z,91302.00
2023-02-24T19:36:24.140Z,91298.00
2023-02-24T19:37:23.660Z,91304.00
2023-02-24T19:38:23.777Z,91304.00
2023-02-24T19:39:23.880Z,91306.00
2023-02-24T19:40:24.043Z,91316.00
2023-02-24T19:41:24.079Z,91318.00
2023-02-24T19:42:24.173Z,91316.00
2023-02-24T19:43:24.276Z,91318.00
2023-02-24T19:44:24.379Z,91320.00
2023-02-24T19:45:24.577Z,91322.00
2023-02-24T19:46:25.100Z,91322.00
2023-02-24T19:47:24.706Z,91323.00
2023-02-24T19:48:24.795Z,91323.00
2023-02-24T19:49:24.902Z,91329.00
2023-02-24T19:50:25.026Z,91323.00
2023-02-24T19:51:25.131Z,91329.00
2023-02-24T19:52:25.238Z,91331.00
2023-02-24T19:53:25.326Z,91331.00
2023-02-24T19:54:25.427Z,91331.00
2023-02-24T19:59:25.948Z,91333.00
2023-02-24T20:00:26.081Z,91335.00
2023-02-24T20:01:26.221Z,91333.00
2023-02-24T20:02:26.290Z,91333.00
2023-02-24T20:03:26.402Z,91335.00
2023-02-24T20:04:26.522Z,91337.00
2023-02-24T20:05:26.564Z,91341.00
2023-02-24T20:06:26.677Z,91341.00
2023-02-24T20:07:26.742Z,91337.00
2023-02-24T20:08:26.799Z,91339.00
2023-02-24T20:09:26.902Z,91331.00
2023-02-24T20:10:26.934Z,91327.00
2023-02-24T20:11:27.013Z,91322.00
2023-02-24T20:12:27.067Z,91318.00
2023-02-24T20:13:27.122Z,91318.00
2023-02-24T20:14:27.174Z,91318.00
2023-02-24T20:15:27.275Z,91318.00
2023-02-24T20:16:27.460Z,91316.00
2023-02-24T20:17:27.460Z,91318.00
2023-02-24T20:18:27.548Z,91322.00
2023-02-24T20:19:27.600Z,91322.00
2023-02-24T20:20:27.649Z,91323.00
2023-02-24T20:21:27.704Z,91323.00
2023-02-24T20:22:27.760Z,91323.00
2023-02-24T20:23:27.806Z,91322.00
2023-02-24T20:24:27.871Z,91316.00
2023-02-24T20:25:27.965Z,91306.00
2023-02-24T20:26:28.009Z,91302.00
2023-02-24T20:27:28.063Z,91294.00
2023-02-24T20:28:28.133Z,91289.00
2023-02-24T20:29:28.188Z,91287.00
2023-02-24T20:30:28.238Z,91281.00
2023-02-24T20:31:28.321Z,91279.00
2023-02-24T20:32:28.405Z,91277.00
2023-02-24T20:33:28.398Z,91279.00
2023-02-24T20:34:28.442Z,91279.00
2023-02-24T20:35:28.549Z,91281.00
2023-02-24T20:36:28.607Z,91285.00
2023-02-24T20:37:28.666Z,91289.00
2023-02-24T20:38:28.738Z,91293.00
2023-02-24T20:39:28.786Z,91291.00
2023-02-24T20:40:28.867Z,91291.00
2023-02-24T20:41:28.944Z,91289.00
2023-02-24T20:42:29.054Z,91291.00
2023-02-24T20:43:29.146Z,91287.00
2023-02-24T20:44:29.198Z,91287.00
2023-02-24T20:45:29.242Z,91287.00
2023-02-24T20:46:29.470Z,91287.00
2023-02-24T20:47:29.411Z,91283.00
2023-02-24T20:48:29.439Z,91281.00
2023-02-24T20:49:29.504Z,91279.00
2023-02-24T20:50:29.590Z,91277.00
2023-02-24T20:51:29.660Z,91273.00
2023-02-24T20:52:29.748Z,91271.00
2023-02-24T20:53:29.797Z,91271.00
2023-02-24T20:54:29.872Z,91269.00
2023-02-24T20:55:29.939Z,91273.00
2023-02-24T20:56:30.014Z,91273.00
2023-02-24T20:57:30.039Z,91273.00
2023-02-24T20:58:30.109Z,91273.00
2023-02-24T20:59:30.160Z,91275.00
2023-02-24T21:00:30.234Z,91275.00
2023-02-24T21:01:30.378Z,91275.00
2023-02-24T21:02:30.410Z,91275.00
2023-02-24T21:03:30.450Z,91275.00
2023-02-24T21:04:30.574Z,91273.00
2023-02-24T21:05:30.606Z,91269.00
2023-02-24T21:06:30.679Z,91269.00
2023-02-24T21:07:30.742Z,91265.00
2023-02-24T21:08:30.803Z,91265.00
2023-02-24T21:09:30.870Z,91265.00
2023-02-24T21:11:30.987Z,91263.00
2023-02-24T21:12:31.048Z,91265.00
2023-02-24T21:13:31.111Z,91267.00
2023-02-24T21:14:31.151Z,91269.00
2023-02-24T21:18:31.410Z,91257.00
2023-02-24T21:20:31.527Z,91251.00
2023-02-24T21:21:31.607Z,91251.00
2023-02-24T21:22:31.680Z,91253.00
2023-02-24T21:23:31.723Z,91253.00
2023-02-24T21:24:31.795Z,91253.00
2023-02-24T21:25:31.859Z,91255.00
2023-02-24T21:26:31.918Z,91253.00
2023-02-24T21:27:31.985Z,91255.00
2023-02-24T21:28:32.021Z,91253.00
2023-02-24T21:29:32.067Z,91253.00
2023-02-24T21:30:32.159Z,91251.00
2023-02-24T21:31:32.348Z,91253.00
2023-02-24T21:32:32.278Z,91255.00
2023-02-24T21:33:32.327Z,91257.00
2023-02-24T21:34:32.377Z,91259.00
2023-02-24T21:35:32.497Z,91261.00
2023-02-24T21:36:32.525Z,91263.00
2023-02-24T21:37:34.888Z,91267.00
2023-02-24T21:38:32.683Z,91271.00
2023-02-24T21:39:32.745Z,91273.00
2023-02-24T21:40:32.803Z,91277.00
2023-02-24T21:41:32.868Z,91281.00
2023-02-24T21:42:32.914Z,91285.00
2023-02-24T21:43:32.966Z,91291.00
2023-02-24T21:44:33.030Z,91294.00
2023-02-24T21:45:33.065Z,91298.00
2023-02-24T21:46:33.119Z,91304.00
2023-02-24T21:47:33.166Z,91308.00
2023-02-24T21:48:33.233Z,91316.00
2023-02-24T21:49:33.288Z,91318.00
2023-02-24T21:50:33.367Z,91320.00
2023-02-24T21:51:33.474Z,91318.00
2023-02-24T21:52:33.479Z,91322.00
2023-02-24T21:53:33.526Z,91325.00